Time;durP1;ratioP1;P1;durP2;ratioP2;P2;SDS_P1;SDS_P2;PMS_P1;PMS_P2;Temp;Humidity;BMP_temperature;BMP_pressure;BME280_temperature;BME280_humidity;BME280_pressure;Samples;Min_cycle;Max_cycle;Signal;HPM_P1;HPM_P2
2022/04/18 00:02:08;;;;;;;7.53;6.82;;;1.40;99.90;;;;;;5033977;28;20045;-60
2022/04/18 00:04:34;;;;;;;10.43;6.80;;;1.40;99.90;;;;;;5034284;28;20021;-60
2022/04/18 00:07:03;;;;;;;7.57;6.88;;;1.40;99.90;;;;;;5050983;28;20518;-60
2022/04/18 00:09:30;;;;;;;7.70;7.00;;;1.30;99.90;;;;;;5053573;28;20100;-60
2022/04/18 00:11:57;;;;;;;8.05;6.47;;;1.30;99.90;;;;;;5053369;28;20086;-60
2022/04/18 00:14:24;;;;;;;8.02;5.95;;;1.30;99.90;;;;;;5033356;28;20689;-60
2022/04/18 00:16:49;;;;;;;8.00;6.55;;;1.30;99.90;;;;;;5033963;28;20116;-60
2022/04/18 00:19:15;;;;;;;8.35;6.85;;;1.30;99.90;;;;;;5034694;28;20121;-59
2022/04/18 00:21:41;;;;;;;11.88;7.57;;;1.30;99.90;;;;;;5038858;28;20086;-59
2022/04/18 00:24:08;;;;;;;7.63;6.82;;;1.30;99.90;;;;;;5043526;28;20108;-60
2022/04/18 00:26:34;;;;;;;6.70;6.00;;;1.30;99.90;;;;;;5047532;28;20029;-60
2022/04/18 00:29:00;;;;;;;9.63;6.70;;;1.20;99.90;;;;;;5053634;28;20028;-60
2022/04/18 00:31:25;;;;;;;6.45;5.93;;;1.10;99.90;;;;;;5043443;28;20426;-60
2022/04/18 00:33:51;;;;;;;9.63;7.18;;;1.10;99.90;;;;;;5033449;28;20112;-60
2022/04/18 00:36:17;;;;;;;7.93;6.28;;;1.10;99.90;;;;;;5044803;28;20118;-59
2022/04/18 00:38:44;;;;;;;7.57;6.88;;;1.10;99.90;;;;;;5052890;28;20064;-60
2022/04/18 00:41:10;;;;;;;8.23;6.80;;;1.00;99.90;;;;;;5052923;28;20025;-59
2022/04/18 00:43:46;;;;;;;7.13;6.32;;;0.90;99.90;;;;;;5052967;28;20060;-60
2022/04/18 00:46:12;;;;;;;7.50;6.50;;;0.90;99.90;;;;;;5051889;28;20036;-59
2022/04/18 00:48:39;;;;;;;7.75;6.28;;;0.90;99.90;;;;;;5053270;28;20057;-60
2022/04/18 00:51:06;;;;;;;7.82;7.00;;;0.90;99.90;;;;;;5052490;28;20028;-60
2022/04/18 00:53:32;;;;;;;8.98;7.38;;;0.80;99.90;;;;;;5051547;28;20151;-60
2022/04/18 00:55:59;;;;;;;7.82;7.03;;;0.60;99.90;;;;;;5043875;28;20033;-59
2022/04/18 00:58:25;;;;;;;7.97;6.35;;;0.60;99.90;;;;;;5034001;28;20022;-59
2022/04/18 01:00:51;;;;;;;6.93;6.22;;;0.70;99.90;;;;;;5032939;28;20489;-59
2022/04/18 01:03:19;;;;;;;8.75;6.82;;;0.70;99.90;;;;;;5033075;28;20413;-60
2022/04/18 01:05:46;;;;;;;8.15;7.35;;;0.70;99.90;;;;;;5032774;28;20029;-60
2022/04/18 01:08:12;;;;;;;9.80;7.95;;;0.70;99.90;;;;;;5043465;28;20021;-59
2022/04/18 01:10:38;;;;;;;7.90;6.80;;;0.70;99.90;;;;;;5050847;28;20468;-60
2022/04/18 01:13:04;;;;;;;7.88;7.07;;;0.60;99.90;;;;;;5052413;28;20036;-60
2022/04/18 01:15:30;;;;;;;8.65;6.63;;;0.50;99.90;;;;;;5044471;28;20045;-59
2022/04/18 01:17:56;;;;;;;6.65;6.05;;;0.50;99.90;;;;;;5046440;28;20107;-60
2022/04/18 01:20:22;;;;;;;10.93;6.70;;;0.50;99.90;;;;;;5051744;28;20104;-60
2022/04/18 01:22:59;;;;;;;6.97;6.38;;;0.50;99.90;;;;;;5048120;28;20410;-60
2022/04/18 01:30:54;;;;;;;9.60;6.47;;;0.60;99.90;;;;;;5047043;28;20109;-60
2022/04/18 01:33:21;;;;;;;12.60;7.65;;;0.50;99.90;;;;;;5043630;28;20547;-60
2022/04/18 01:35:47;;;;;;;9.55;7.05;;;0.50;99.90;;;;;;5042607;28;20040;-60
2022/04/18 01:38:13;;;;;;;8.82;7.03;;;0.30;99.90;;;;;;5032252;28;20029;-60
2022/04/18 01:40:39;;;;;;;8.60;6.90;;;0.30;99.90;;;;;;5033413;28;20033;-60
2022/04/18 01:43:06;;;;;;;9.40;6.32;;;0.30;99.90;;;;;;5030923;28;20048;-60
2022/04/18 01:45:31;;;;;;;7.28;6.57;;;0.30;99.90;;;;;;5032119;28;20033;-59
2022/04/18 01:47:57;;;;;;;7.70;6.90;;;0.30;99.90;;;;;;5033051;28;20036;-60
2022/04/18 01:50:23;;;;;;;7.15;6.43;;;0.30;99.90;;;;;;5033198;28;20025;-59
2022/04/18 01:52:49;;;;;;;11.25;6.63;;;0.30;99.90;;;;;;5051724;28;20070;-60
2022/04/18 01:55:14;;;;;;;7.95;6.20;;;0.20;99.90;;;;;;5048896;28;21660;-60
2022/04/18 01:57:40;;;;;;;6.90;6.20;;;0.10;99.90;;;;;;5031966;28;20028;-59
2022/04/18 02:00:06;;;;;;;9.73;6.68;;;0.00;99.90;;;;;;5031588;28;20033;-60
2022/04/18 02:02:32;;;;;;;8.25;6.47;;;0.00;99.90;;;;;;5030634;28;20034;-60
2022/04/18 02:04:59;;;;;;;7.30;6.10;;;0.00;99.90;;;;;;5029410;28;20036;-59
2022/04/18 02:07:24;;;;;;;6.88;6.28;;;0.10;99.90;;;;;;5030401;28;20095;-60
2022/04/18 02:09:50;;;;;;;6.53;5.82;;;0.10;99.90;;;;;;5030767;28;20026;-59
2022/04/18 02:12:16;;;;;;;7.93;7.10;;;-0.20;99.90;;;;;;5031110;28;20029;-60
2022/04/18 02:14:42;;;;;;;9.52;6.97;;;-0.20;99.90;;;;;;5030992;28;20049;-60
2022/04/18 02:17:07;;;;;;;9.95;6.22;;;-0.20;99.90;;;;;;5031885;28;20032;-60
2022/04/18 02:19:33;;;;;;;6.80;6.00;;;-0.20;99.90;;;;;;5048969;28;20067;-60
2022/04/18 02:21:59;;;;;;;10.98;6.05;;;-0.20;99.90;;;;;;5050650;28;20029;-60
2022/04/18 02:24:24;;;;;;;9.35;6.28;;;-0.20;99.90;;;;;;5050926;28;20072;-59
2022/04/18 02:26:50;;;;;;;7.63;5.55;;;-0.20;99.90;;;;;;5035881;28;20029;-59
2022/04/18 02:29:16;;;;;;;10.13;5.95;;;-0.30;99.90;;;;;;5031334;28;20030;-60
2022/04/18 02:34:25;;;;;;;7.45;6.30;;;-0.30;99.90;;;;;;5050996;28;20040;-60
2022/04/18 02:36:51;;;;;;;8.98;6.97;;;-0.30;99.90;;;;;;5034630;28;20385;-59
2022/04/18 02:39:17;;;;;;;6.50;5.90;;;-0.30;99.90;;;;;;5049329;28;20036;-60
2022/04/18 02:41:42;;;;;;;7.20;5.57;;;-0.40;99.90;;;;;;5051084;28;20041;-60
2022/04/18 02:44:08;;;;;;;6.45;5.85;;;-0.30;99.90;;;;;;5050945;28;20033;-60
2022/04/18 02:46:34;;;;;;;7.30;6.45;;;-0.40;99.90;;;;;;5049709;28;20025;-59
2022/04/18 02:48:59;;;;;;;6.20;5.60;;;-0.50;99.90;;;;;;5051360;28;20047;-59
2022/04/18 02:51:27;;;;;;;8.68;6.00;;;-0.40;99.90;;;;;;5055055;28;20064;-59
2022/04/18 02:53:54;;;;;;;6.65;6.00;;;-0.40;99.90;;;;;;5055239;28;20025;-60
2022/04/18 02:56:20;;;;;;;8.38;6.10;;;-0.40;99.90;;;;;;5043499;28;20033;-60
2022/04/18 02:58:45;;;;;;;9.35;6.28;;;-0.40;99.90;;;;;;5034571;28;20030;-60
2022/04/18 03:01:11;;;;;;;7.32;5.68;;;-0.50;99.90;;;;;;5051647;28;20048;-60
2022/04/18 03:03:37;;;;;;;6.57;5.70;;;-0.50;99.90;;;;;;5055179;28;20056;-60
2022/04/18 03:06:04;;;;;;;7.53;6.80;;;-0.50;99.90;;;;;;5043669;28;20034;-59
2022/04/18 03:08:30;;;;;;;8.32;6.45;;;-0.50;99.90;;;;;;5034884;28;20377;-60
2022/04/18 03:11:05;;;;;;;6.70;5.82;;;-0.50;99.90;;;;;;5034942;28;20041;-59
2022/04/18 03:13:35;;;;;;;8.18;6.07;;;-0.50;99.90;;;;;;5034996;28;20658;-60
2022/04/18 03:16:01;;;;;;;13.43;5.85;;;-0.40;99.90;;;;;;5036055;28;20045;-59
2022/04/18 03:18:28;;;;;;;6.45;5.78;;;-0.50;99.90;;;;;;5053996;28;20110;-60
2022/04/18 03:20:54;;;;;;;6.63;5.93;;;-0.60;99.90;;;;;;5037839;28;20029;-60
2022/04/18 03:23:19;;;;;;;7.85;5.95;;;-0.50;99.90;;;;;;5034725;28;20060;-60
2022/04/18 03:25:45;;;;;;;5.93;5.35;;;-0.60;99.90;;;;;;5036728;28;20073;-60
2022/04/18 03:28:11;;;;;;;6.30;5.72;;;-0.70;99.90;;;;;;5034564;28;20057;-59
2022/04/18 03:30:37;;;;;;;6.30;5.72;;;-0.80;99.90;;;;;;5038043;28;20119;-60
2022/04/18 03:33:03;;;;;;;7.32;5.93;;;-0.90;99.90;;;;;;5054625;28;20017;-60
2022/04/18 03:35:30;;;;;;;6.60;5.93;;;-0.80;99.90;;;;;;5054118;28;20424;-59
2022/04/18 03:40:43;;;;;;;7.15;5.95;;;-0.80;99.90;;;;;;5054051;28;20047;-60
2022/04/18 03:43:08;;;;;;;7.05;6.32;;;-0.90;99.90;;;;;;5054245;28;20472;-60
2022/04/18 03:45:34;;;;;;;8.95;5.63;;;-1.00;99.90;;;;;;5047038;28;20029;-60
2022/04/18 03:47:59;;;;;;;6.95;6.25;;;-0.90;99.90;;;;;;5034337;28;20030;-60
2022/04/18 03:50:25;;;;;;;6.85;6.13;;;-0.90;99.90;;;;;;5034237;28;20152;-59
2022/04/18 03:52:51;;;;;;;6.63;5.85;;;-0.90;99.90;;;;;;5039638;28;20499;-59
2022/04/18 03:55:17;;;;;;;7.38;5.95;;;-0.80;99.90;;;;;;5050020;28;20108;-59
2022/04/18 03:57:43;;;;;;;9.52;5.70;;;-0.80;99.90;;;;;;5033070;28;20033;-60
2022/04/18 04:00:10;;;;;;;6.68;6.07;;;-0.80;99.90;;;;;;5034071;28;20022;-60
2022/04/18 04:02:36;;;;;;;7.10;5.95;;;-0.70;99.90;;;;;;5034298;28;20026;-59
2022/04/18 04:05:03;;;;;;;9.65;6.18;;;-0.80;99.90;;;;;;5034057;28;20515;-60
2022/04/18 04:07:28;;;;;;;6.78;5.90;;;-0.80;99.90;;;;;;5033772;28;20025;-60
2022/04/18 04:09:54;;;;;;;10.52;5.82;;;-0.90;99.90;;;;;;5033786;28;20026;-59
2022/04/18 04:12:24;;;;;;;6.90;6.20;;;-0.90;99.90;;;;;;5033592;28;20025;-59
2022/04/18 04:14:51;;;;;;;6.43;5.82;;;-0.90;99.90;;;;;;5034224;28;20044;-57
2022/04/18 04:17:17;;;;;;;6.15;5.55;;;-0.90;99.90;;;;;;5034507;28;20025;-60
2022/04/18 04:19:44;;;;;;;8.70;6.28;;;-1.00;99.90;;;;;;5052850;28;20040;-60
2022/04/18 04:22:10;;;;;;;6.95;6.35;;;-1.00;99.90;;;;;;5051194;28;20082;-59
2022/04/18 04:24:35;;;;;;;6.97;6.13;;;-1.00;99.90;;;;;;5033706;28;20035;-59
2022/04/18 04:27:01;;;;;;;10.00;8.18;;;-1.10;99.90;;;;;;5034668;28;20025;-59
2022/04/18 04:29:27;;;;;;;8.15;7.00;;;-1.10;99.90;;;;;;5042386;28;20025;-60
2022/04/18 04:31:52;;;;;;;6.38;5.75;;;-1.10;99.90;;;;;;5041921;28;20637;-60
2022/04/18 04:34:18;;;;;;;7.82;6.10;;;-1.10;99.90;;;;;;5033240;28;20041;-60
2022/04/18 04:36:44;;;;;;;6.30;5.70;;;-1.00;99.90;;;;;;5033235;28;20633;-59
2022/04/18 04:39:09;;;;;;;6.40;5.80;;;-0.90;99.90;;;;;;5033210;28;20033;-60
2022/04/18 04:41:36;;;;;;;9.43;6.60;;;-1.00;99.90;;;;;;5033386;28;20025;-60
2022/04/18 04:44:03;;;;;;;7.93;6.03;;;-1.00;99.90;;;;;;5033477;28;20044;-60
2022/04/18 04:46:28;;;;;;;11.10;6.65;;;-1.00;99.90;;;;;;5046713;28;20056;-60
2022/04/18 04:48:54;;;;;;;7.88;6.35;;;-1.00;99.90;;;;;;5053166;28;20419;-59
2022/04/18 04:51:20;;;;;;;6.43;5.78;;;-0.90;99.90;;;;;;5052449;28;20444;-59
2022/04/18 04:53:46;;;;;;;6.93;5.90;;;-0.80;99.90;;;;;;5051254;28;20082;-59
2022/04/18 04:56:13;;;;;;;6.97;6.15;;;-0.70;99.90;;;;;;5052588;28;20025;-60
2022/04/18 04:58:38;;;;;;;6.70;6.00;;;-0.60;99.90;;;;;;5040916;28;20021;-59
2022/04/18 05:01:05;;;;;;;6.70;5.90;;;-0.60;99.90;;;;;;5034946;28;20090;-60
2022/04/18 05:03:30;;;;;;;8.55;6.80;;;-0.40;99.90;;;;;;5052758;28;20017;-60
2022/04/18 05:05:56;;;;;;;8.50;6.97;;;-0.40;99.90;;;;;;5052189;28;20039;-60
2022/04/18 05:08:21;;;;;;;11.57;7.40;;;-0.20;99.90;;;;;;5050429;28;20622;-59
2022/04/18 05:10:47;;;;;;;7.57;6.70;;;-0.20;99.90;;;;;;5052556;28;20104;-59
2022/04/18 05:13:13;;;;;;;16.52;6.40;;;-0.10;99.90;;;;;;5052609;28;20036;-59
2022/04/18 05:15:39;;;;;;;6.35;5.72;;;0.00;99.90;;;;;;5047042;28;20041;-60
2022/04/18 05:18:05;;;;;;;8.27;6.57;;;0.00;99.90;;;;;;5032458;28;20022;-59
2022/04/18 05:20:31;;;;;;;11.27;6.57;;;0.10;99.90;;;;;;5033647;28;20032;-60
2022/04/18 05:22:57;;;;;;;8.73;7.60;;;0.20;99.90;;;;;;5032539;28;20029;-59
2022/04/18 05:25:24;;;;;;;10.15;7.32;;;0.30;99.90;;;;;;5032536;28;20044;-59
2022/04/18 05:27:50;;;;;;;10.95;6.97;;;0.40;99.90;;;;;;5032583;28;20018;-60
2022/04/18 05:30:15;;;;;;;9.55;7.72;;;0.50;99.90;;;;;;5035771;28;20547;-60
2022/04/18 05:32:43;;;;;;;12.15;8.32;;;0.50;99.90;;;;;;5047916;28;20078;-59
2022/04/18 05:35:09;;;;;;;14.80;9.00;;;0.50;99.90;;;;;;5051842;28;20598;-60
2022/04/18 05:37:34;;;;;;;12.63;9.05;;;0.60;99.90;;;;;;5052124;28;20040;-60
2022/04/18 05:40:00;;;;;;;11.32;8.38;;;0.60;99.90;;;;;;5052051;28;20025;-60
2022/04/18 05:42:26;;;;;;;9.48;6.63;;;0.70;99.90;;;;;;5052046;28;20033;-59
2022/04/18 05:44:51;;;;;;;11.75;6.82;;;0.80;99.90;;;;;;5051892;28;20112;-60
2022/04/18 05:47:17;;;;;;;9.02;7.57;;;0.90;99.90;;;;;;5051872;28;20048;-60
2022/04/18 05:49:43;;;;;;;7.90;7.10;;;1.10;99.90;;;;;;5050770;28;20024;-60
2022/04/18 05:52:09;;;;;;;13.77;7.20;;;1.30;99.90;;;;;;5051472;28;20108;-59
2022/04/18 05:54:34;;;;;;;8.15;6.15;;;1.40;99.90;;;;;;5050180;28;20021;-60
2022/04/18 05:57:03;;;;;;;8.30;6.32;;;1.40;99.90;;;;;;5050374;28;20480;-60
2022/04/18 05:59:28;;;;;;;8.75;6.22;;;1.50;99.90;;;;;;5044010;28;20049;-60
2022/04/18 06:01:54;;;;;;;6.80;6.05;;;1.60;99.90;;;;;;5031693;28;20056;-60
2022/04/18 06:04:20;;;;;;;7.97;6.65;;;1.60;99.90;;;;;;5031645;28;20029;-60
2022/04/18 06:06:45;;;;;;;7.80;6.32;;;1.70;99.90;;;;;;5031824;28;20034;-60
2022/04/18 06:09:11;;;;;;;10.48;6.63;;;1.90;99.90;;;;;;5031763;28;20026;-60
2022/04/18 06:11:36;;;;;;;10.93;6.47;;;2.00;99.90;;;;;;5031833;28;20037;-60
2022/04/18 06:14:02;;;;;;;12.45;6.20;;;2.10;99.90;;;;;;5030072;28;20064;-60
2022/04/18 06:16:28;;;;;;;11.18;7.35;;;2.20;99.90;;;;;;5031626;28;20029;-60
2022/04/18 06:18:54;;;;;;;15.65;10.30;;;2.40;99.90;;;;;;5033514;28;20295;-60
2022/04/18 06:21:19;;;;;;;14.15;10.35;;;2.50;99.90;;;;;;5049335;28;20032;-60
2022/04/18 06:23:45;;;;;;;30.13;16.27;;;2.70;99.90;;;;;;5046835;28;20033;-60
2022/04/18 06:26:11;;;;;;;19.17;14.20;;;2.90;99.90;;;;;;5031449;28;20033;-60
2022/04/18 06:28:36;;;;;;;15.57;9.75;;;3.10;99.90;;;;;;5031579;28;20064;-60
2022/04/18 06:31:02;;;;;;;13.57;9.07;;;3.20;99.90;;;;;;5046540;28;20029;-60
2022/04/18 06:33:29;;;;;;;10.25;8.10;;;3.40;99.90;;;;;;5050836;28;20114;-60
2022/04/18 06:35:55;;;;;;;10.50;6.43;;;3.70;99.90;;;;;;5031406;28;20029;-60
2022/04/18 06:38:21;;;;;;;10.93;7.28;;;3.90;99.90;;;;;;5031313;28;20091;-60
2022/04/18 06:40:46;;;;;;;8.65;6.60;;;4.00;99.90;;;;;;5030178;28;20068;-60
2022/04/18 06:43:15;;;;;;;12.55;8.77;;;4.10;99.90;;;;;;5031283;28;20400;-60
2022/04/18 06:45:40;;;;;;;10.10;6.22;;;4.20;99.90;;;;;;5031365;28;20060;-60
2022/04/18 06:48:06;;;;;;;11.32;8.27;;;4.40;99.90;;;;;;5031272;28;20072;-60
2022/04/18 06:50:32;;;;;;;9.95;6.70;;;4.60;99.90;;;;;;5031366;28;20029;-60
2022/04/18 06:52:58;;;;;;;9.43;6.85;;;4.70;99.90;;;;;;5031328;28;20071;-60
2022/04/18 06:55:23;;;;;;;10.05;6.72;;;5.00;99.90;;;;;;5031552;28;20029;-60
2022/04/18 06:57:50;;;;;;;10.02;7.03;;;5.20;99.90;;;;;;5050853;28;20068;-60
2022/04/18 07:00:16;;;;;;;9.75;7.22;;;5.40;99.90;;;;;;5042333;28;20492;-60
2022/04/18 07:02:50;;;;;;;12.50;6.40;;;5.60;99.90;;;;;;5049810;28;20119;-60
2022/04/18 07:05:16;;;;;;;9.68;6.28;;;5.80;99.90;;;;;;5034717;28;20477;-60
2022/04/18 07:07:42;;;;;;;9.70;5.80;;;6.00;99.90;;;;;;5049322;28;20048;-60
2022/04/18 07:10:08;;;;;;;9.00;6.53;;;6.10;99.90;;;;;;5050792;28;20025;-60
2022/04/18 07:12:37;;;;;;;10.60;6.00;;;6.20;99.90;;;;;;5050217;28;20108;-60
2022/04/18 07:15:03;;;;;;;7.68;5.75;;;6.40;99.90;;;;;;5048233;28;20512;-60
2022/04/18 07:17:30;;;;;;;6.57;5.78;;;6.50;98.10;;;;;;5032044;28;20029;-60
2022/04/18 07:19:56;;;;;;;7.32;4.97;;;6.80;98.80;;;;;;5032223;28;20022;-60
2022/04/18 07:22:24;;;;;;;6.85;5.10;;;7.00;97.60;;;;;;5050600;28;20574;-60
2022/04/18 07:24:50;;;;;;;7.95;5.38;;;7.20;96.80;;;;;;5039153;28;20022;-60
2022/04/18 07:27:15;;;;;;;6.47;4.80;;;7.40;96.00;;;;;;5039986;28;20071;-60
2022/04/18 07:29:41;;;;;;;6.43;5.15;;;7.60;96.20;;;;;;5030739;28;20041;-60
2022/04/18 07:32:07;;;;;;;4.95;4.35;;;7.70;94.70;;;;;;5046571;28;20483;-60
2022/04/18 07:34:34;;;;;;;5.72;4.53;;;7.90;94.10;;;;;;5054542;28;20021;-60
2022/04/18 07:37:00;;;;;;;5.85;4.63;;;8.10;94.70;;;;;;5054263;28;20032;-60
2022/04/18 07:39:25;;;;;;;7.45;5.10;;;8.20;93.10;;;;;;5054236;28;20052;-60
2022/04/18 07:41:51;;;;;;;10.55;5.22;;;8.30;94.30;;;;;;5054096;28;20483;-60
2022/04/18 07:44:17;;;;;;;6.97;4.90;;;8.40;92.60;;;;;;5053829;28;20029;-60
2022/04/18 07:46:43;;;;;;;7.90;4.43;;;8.50;93.50;;;;;;5054054;28;20457;-60
2022/04/18 07:49:09;;;;;;;5.00;4.47;;;8.60;93.20;;;;;;5054011;28;20108;-60
2022/04/18 07:51:35;;;;;;;74.03;39.70;;;8.80;92.50;;;;;;5053536;28;20108;-60
2022/04/18 07:54:05;;;;;;;78.45;70.70;;;8.80;90.80;;;;;;5054147;28;20021;-60
2022/04/18 07:56:30;;;;;;;7.97;6.90;;;8.90;90.80;;;;;;5054043;28;20025;-60
2022/04/18 07:58:56;;;;;;;8.25;7.38;;;9.00;89.80;;;;;;5054085;28;20219;-60
2022/04/18 08:01:22;;;;;;;9.25;5.25;;;9.00;88.30;;;;;;5044380;28;20496;-61
2022/04/18 08:03:49;;;;;;;6.35;4.53;;;9.20;86.90;;;;;;5036884;28;20025;-60
2022/04/18 08:06:16;;;;;;;13.35;9.63;;;9.30;86.40;;;;;;5036450;28;20021;-61
2022/04/18 08:08:42;;;;;;;6.72;4.60;;;9.30;83.40;;;;;;5052384;28;20045;-61
2022/04/18 08:11:15;;;;;;;6.43;3.90;;;9.40;86.00;;;;;;5053567;28;20021;-61
2022/04/18 08:13:42;;;;;;;6.90;4.60;;;9.40;83.50;;;;;;5037192;28;20120;-60
2022/04/18 08:16:08;;;;;;;5.15;4.00;;;9.50;84.40;;;;;;5033566;28;20500;-60
2022/04/18 08:18:39;;;;;;;7.88;3.35;;;9.60;76.60;;;;;;5034188;28;20030;-60
2022/04/18 08:21:08;;;;;;;6.00;3.83;;;9.70;76.90;;;;;;5033095;28;20523;-60
2022/04/18 08:23:34;;;;;;;5.60;4.20;;;9.80;76.20;;;;;;5033547;28;20034;-60
2022/04/18 08:26:00;;;;;;;4.22;3.58;;;10.00;81.50;;;;;;5031603;28;20026;-60
2022/04/18 08:28:26;;;;;;;6.43;3.42;;;10.00;68.90;;;;;;5033033;28;20471;-61
2022/04/18 08:30:53;;;;;;;6.50;4.05;;;9.90;72.40;;;;;;5033062;28;20097;-60
2022/04/18 08:33:19;;;;;;;7.93;3.90;;;10.10;75.40;;;;;;5051820;28;20032;-60
2022/04/18 08:35:45;;;;;;;4.18;3.40;;;10.20;69.70;;;;;;5053115;28;20029;-60
2022/04/18 08:38:11;;;;;;;4.05;3.53;;;10.20;66.40;;;;;;5050831;28;20036;-60
2022/04/18 08:40:37;;;;;;;4.95;4.45;;;10.10;66.80;;;;;;5052770;28;20075;-60
2022/04/18 08:43:03;;;;;;;7.93;3.80;;;10.30;64.10;;;;;;5052917;28;20071;-61
2022/04/18 08:45:29;;;;;;;5.05;3.90;;;10.40;64.10;;;;;;5045482;28;21498;-61
2022/04/18 08:53:28;;;;;;;4.95;3.45;;;10.70;63.80;;;;;;5024443;28;20048;-61
2022/04/18 08:55:55;;;;;;;6.95;3.05;;;10.80;64.90;;;;;;5021493;28;20393;-61
2022/04/18 08:58:26;;;;;;;4.50;3.10;;;11.20;68.70;;;;;;5021427;28;20026;-61
2022/04/18 09:00:52;;;;;;;4.40;3.28;;;11.30;62.00;;;;;;5021156;28;20091;-61
2022/04/18 09:03:18;;;;;;;3.90;2.60;;;11.20;61.10;;;;;;5023793;28;20035;-61
2022/04/18 09:05:44;;;;;;;3.92;2.70;;;11.30;60.40;;;;;;5019907;28;20041;-61
2022/04/18 09:08:10;;;;;;;6.75;2.97;;;11.30;61.70;;;;;;5021718;28;20079;-61
2022/04/18 09:10:37;;;;;;;3.97;3.05;;;11.40;61.30;;;;;;5021655;28;20033;-61
2022/04/18 09:13:08;;;;;;;3.22;2.92;;;11.70;63.00;;;;;;5022351;28;20044;-61
2022/04/18 09:15:35;;;;;;;3.58;3.20;;;11.50;56.50;;;;;;5021703;28;20049;-61
2022/04/18 09:18:09;;;;;;;5.50;2.70;;;11.60;56.50;;;;;;5022155;28;20029;-61
2022/04/18 09:20:48;;;;;;;;;;;12.00;60.10;;;;;;5022324;28;20385;-61
2022/04/18 09:23:25;;;;;;;3.60;2.15;;;11.90;55.00;;;;;;5020302;28;19948;-61
2022/04/18 09:25:53;;;;;;;4.22;2.65;;;12.00;58.90;;;;;;5022137;28;20033;-61
2022/04/18 09:28:26;;;;;;;2.33;2.13;;;12.20;56.20;;;;;;5022019;28;20025;-61
2022/04/18 09:30:59;;;;;;;4.55;2.80;;;11.90;54.40;;;;;;5022031;28;20112;-62
2022/04/18 09:33:29;;;;;;;6.67;3.03;;;12.40;58.20;;;;;;5030748;28;20045;-61
2022/04/18 09:36:24;;;;;;;3.15;2.53;;;12.70;54.10;;;;;;5040378;28;20029;-61
2022/04/18 09:38:56;;;;;;;2.50;2.05;;;13.20;58.40;;;;;;5021337;28;20048;-61
2022/04/18 09:41:23;;;;;;;3.35;2.17;;;13.50;59.40;;;;;;5020867;28;20036;-62
2022/04/18 09:43:52;;;;;;;3.50;2.30;;;13.50;56.00;;;;;;5040503;28;20031;-61
2022/04/18 09:46:18;;;;;;;3.10;2.42;;;13.70;51.40;;;;;;5029189;28;20400;-62
2022/04/18 09:48:45;;;;;;;2.45;2.25;;;13.80;52.50;;;;;;5020774;28;20029;-61
2022/04/18 09:51:35;;;;;;;5.00;2.30;;;13.50;51.80;;;;;;5021043;28;20030;-61
2022/04/18 09:54:00;;;;;;;3.90;2.20;;;13.70;52.10;;;;;;5022378;28;20021;-61
2022/04/18 09:56:29;;;;;;;4.88;2.35;;;13.70;52.00;;;;;;5020307;28;20083;-61
2022/04/18 09:58:58;;;;;;;6.15;2.40;;;13.90;52.70;;;;;;5021940;28;20057;-61
2022/04/18 10:01:24;;;;;;;3.80;2.47;;;14.10;53.80;;;;;;5021402;28;20033;-62
2022/04/18 10:03:52;;;;;;;3.72;2.58;;;14.30;53.40;;;;;;5020806;28;20056;-61
2022/04/18 10:06:19;;;;;;;6.13;2.47;;;14.30;54.30;;;;;;5020524;28;20025;-61
2022/04/18 10:08:45;;;;;;;3.25;2.53;;;13.80;49.20;;;;;;5020830;28;20164;-61
2022/04/18 10:11:11;;;;;;;2.42;1.75;;;14.00;48.20;;;;;;5020618;28;20044;-61
2022/04/18 10:13:37;;;;;;;2.20;1.92;;;14.00;48.50;;;;;;5020747;28;20381;-61
2022/04/18 10:16:04;;;;;;;3.78;2.55;;;14.30;51.00;;;;;;5020125;28;20053;-61
2022/04/18 10:18:35;;;;;;;3.55;2.63;;;13.80;49.20;;;;;;5019828;28;20031;-61
2022/04/18 10:21:06;;;;;;;2.80;2.53;;;14.00;50.20;;;;;;5019593;28;20091;-61
2022/04/18 10:24:10;;;;;;;3.15;2.05;;;14.00;50.00;;;;;;5019583;28;20029;-61
2022/04/18 10:26:51;;;;;;;2.65;2.20;;;14.30;53.10;;;;;;5019494;28;20030;-60
2022/04/18 10:29:25;;;;;;;3.05;2.38;;;14.80;49.70;;;;;;5019314;28;20029;-60
2022/04/18 10:31:53;;;;;;;3.47;2.53;;;14.60;47.30;;;;;;5022752;28;20030;-60
2022/04/18 10:34:23;;;;;;;6.80;2.60;;;14.90;49.50;;;;;;5019579;28;20164;-60
2022/04/18 10:36:54;;;;;;;2.22;2.05;;;14.90;53.00;;;;;;5020134;28;20113;-60
2022/04/18 10:39:21;;;;;;;3.15;2.35;;;15.20;47.60;;;;;;5019349;28;20033;-61
2022/04/18 10:41:48;;;;;;;2.33;1.92;;;15.10;44.70;;;;;;5020440;28;20843;-61
2022/04/18 10:44:15;;;;;;;3.03;2.10;;;15.10;48.40;;;;;;5020817;28;20025;-60
2022/04/18 10:46:55;;;;;;;3.53;2.40;;;15.60;47.90;;;;;;5019865;28;20079;-60
2022/04/18 10:49:23;;;;;;;2.35;2.15;;;15.50;47.30;;;;;;5019747;28;20042;-60
2022/04/18 10:51:52;;;;;;;1.98;1.83;;;15.90;48.20;;;;;;5020543;28;20022;-61
2022/04/18 10:54:25;;;;;;;2.00;1.80;;;16.00;45.80;;;;;;5020370;28;20038;-60
2022/04/18 10:56:52;;;;;;;4.13;2.20;;;15.50;43.20;;;;;;5020479;28;20392;-61
2022/04/18 10:59:28;;;;;;;5.85;1.88;;;16.10;43.80;;;;;;5018869;28;20591;-61
2022/04/18 11:01:56;;;;;;;2.40;2.08;;;16.00;45.50;;;;;;5020229;28;20029;-61
2022/04/18 11:04:30;;;;;;;2.67;1.90;;;15.90;43.30;;;;;;5020985;28;20045;-61
2022/04/18 11:06:59;;;;;;;;;;;16.10;45.40;;;;;;5021546;28;20036;-61
2022/04/18 11:09:27;;;;;;;3.05;1.92;;;15.90;46.20;;;;;;5023366;28;19909;-60
2022/04/18 11:12:08;;;;;;;2.38;2.15;;;16.00;47.60;;;;;;5024275;28;20044;-61
2022/04/18 11:14:54;;;;;;;6.03;2.42;;;16.00;47.60;;;;;;5036010;28;20393;-61
2022/04/18 11:17:37;;;;;;;2.40;2.20;;;16.30;48.50;;;;;;5038204;28;20152;-60
2022/04/18 11:20:27;;;;;;;4.35;2.08;;;16.10;47.00;;;;;;5034910;28;20053;-60
2022/04/18 11:23:18;;;;;;;5.70;2.08;;;15.90;43.10;;;;;;5031429;28;20038;-60
2022/04/18 11:26:04;;;;;;;3.58;2.55;;;16.50;45.30;;;;;;5023936;28;20397;-60
2022/04/18 11:28:39;;;;;;;7.82;1.80;;;16.90;42.10;;;;;;5024237;28;20036;-60
2022/04/18 11:31:17;;;;;;;2.83;2.00;;;18.10;45.50;;;;;;5043298;28;20071;-61
2022/04/18 11:33:44;;;;;;;3.97;1.90;;;18.10;39.40;;;;;;5054416;28;20036;-61
2022/04/18 11:36:11;;;;;;;2.70;1.50;;;18.90;38.00;;;;;;5053609;28;20025;-61
2022/04/18 11:38:37;;;;;;;2.17;1.67;;;20.50;40.00;;;;;;5052022;28;20052;-61
2022/04/18 11:41:12;;;;;;;2.88;2.17;;;21.30;35.10;;;;;;5054279;28;20060;-61
2022/04/18 11:43:38;;;;;;;2.78;1.60;;;20.80;35.20;;;;;;5049341;28;20022;-61
2022/04/18 11:46:07;;;;;;;1.45;1.17;;;22.60;35.50;;;;;;5034214;28;20022;-61
2022/04/18 11:48:34;;;;;;;1.60;1.50;;;23.70;31.50;;;;;;5032997;28;20028;-61
2022/04/18 11:51:00;;;;;;;5.18;1.75;;;23.40;32.60;;;;;;5035556;28;20079;-61
2022/04/18 11:53:31;;;;;;;4.07;1.60;;;22.70;34.00;;;;;;5034182;28;20637;-61
2022/04/18 11:55:57;;;;;;;8.02;1.55;;;22.60;32.50;;;;;;5034313;28;20053;-61
2022/04/18 11:58:22;;;;;;;1.63;1.35;;;22.80;31.40;;;;;;5034017;28;20490;-62
2022/04/18 12:09:09;;;;;;;1.65;1.55;;;21.80;32.50;;;;;;5033640;28;20113;-61
2022/04/18 12:11:35;;;;;;;2.28;1.23;;;23.10;30.60;;;;;;5033747;28;20021;-61
2022/04/18 12:14:02;;;;;;;2.83;1.40;;;24.50;31.10;;;;;;5033908;28;20041;-62
2022/04/18 12:16:30;;;;;;;2.42;1.50;;;23.80;29.50;;;;;;5038150;28;20024;-61
2022/04/18 12:18:57;;;;;;;1.38;1.27;;;22.10;30.20;;;;;;5035042;28;20049;-61
2022/04/18 12:21:24;;;;;;;2.80;1.65;;;21.50;30.90;;;;;;5053508;28;20063;-61
2022/04/18 12:23:55;;;;;;;3.30;1.40;;;20.20;32.70;;;;;;5053627;28;20384;-61
2022/04/18 12:26:27;;;;;;;3.58;1.70;;;19.20;35.50;;;;;;5052011;28;20041;-61
2022/04/18 12:29:10;;;;;;;3.37;2.40;;;18.00;37.00;;;;;;5053717;28;20386;-61
2022/04/18 12:31:40;;;;;;;2.53;1.87;;;17.10;37.90;;;;;;5045386;28;20260;-61
2022/04/18 12:34:06;;;;;;;1.95;1.65;;;16.50;39.30;;;;;;5033133;28;20029;-61
2022/04/18 12:36:36;;;;;;;2.53;1.63;;;17.60;39.00;;;;;;5033011;28;20033;-61
2022/04/18 12:39:03;;;;;;;1.73;1.50;;;19.10;38.80;;;;;;5033503;28;20412;-61
2022/04/18 12:41:38;;;;;;;3.92;1.55;;;20.80;35.00;;;;;;5033282;28;20041;-62
2022/04/18 12:44:14;;;;;;;4.20;1.30;;;22.10;32.50;;;;;;5033287;28;20451;-62
2022/04/18 12:46:41;;;;;;;3.30;1.10;;;22.40;34.00;;;;;;5032506;28;20025;-62
2022/04/18 12:49:10;;;;;;;2.83;1.90;;;23.10;32.20;;;;;;5032538;28;20393;-62
2022/04/18 12:51:42;;;;;;;3.08;1.40;;;23.20;31.50;;;;;;5033167;28;20018;-62
2022/04/18 12:54:21;;;;;;;2.17;1.00;;;23.60;32.20;;;;;;5033096;28;20022;-62
2022/04/18 12:56:48;;;;;;;1.55;1.45;;;23.20;30.00;;;;;;5033028;28;20116;-62
2022/04/18 12:59:21;;;;;;;3.70;1.40;;;23.00;31.10;;;;;;5032563;28;20098;-62
2022/04/18 13:01:46;;;;;;;2.03;1.25;;;23.20;30.30;;;;;;5041373;28;20029;-62
2022/04/18 13:04:22;;;;;;;4.25;1.52;;;24.20;31.70;;;;;;5052466;28;20121;-62
2022/04/18 13:06:59;;;;;;;1.50;1.25;;;25.00;32.40;;;;;;5052415;28;20028;-62
2022/04/18 13:09:25;;;;;;;2.38;1.33;;;25.40;30.30;;;;;;5052385;28;20032;-62
2022/04/18 13:12:02;;;;;;;4.45;1.40;;;25.20;31.60;;;;;;5052544;28;20025;-62
2022/04/18 13:14:28;;;;;;;3.70;1.50;;;24.60;30.40;;;;;;5051261;28;20056;-62
2022/04/18 13:17:08;;;;;;;4.20;1.58;;;24.60;30.70;;;;;;5051012;28;20389;-62
2022/04/18 13:19:35;;;;;;;1.83;1.20;;;24.30;30.30;;;;;;5051289;28;20032;-61